EBOS/OST METAR and TAF weather

Enter ICAO airport designator
Station Type Date Time Source
EBOS METAR 2019/04/18 20:50 UTC NOAA

EBOS 182050Z 05010KT CAVOK 15/06 Q1024 NOSIG


Station Type Date Time Source
EBOS Decoded METAR 2019/04/18 20:50 UTC NOAA

Oostende Airport , Belgium (EBOS) 51-12N 002-52E 5M
Apr 18, 2019 - 04:50 PM EDT / 2019.04.18 2050 UTC
Wind: from the NE (050 degrees) at 12 MPH (10 KT):0
Visibility: greater than 7 mile(s):0
Temperature: 59 F (15 C)
Dew Point: 42 F (6 C)
Relative Humidity: 54%
Pressure (altimeter): 30.24 in. Hg (1024 hPa)
ob: EBOS 182050Z 05010KT CAVOK 15/06 Q1024 NOSIG
cycle: 21

Station Type Date Time Source
EBOS TAF 2019/04/18 18:27 UTC NOAA

TAF EBOS 181700Z 1818/1924 08009KT CAVOK
TEMPO 1912/1918 02011KT

Example: see airport list